sensor_id;sensor_type;location;lat;lon;timestamp;pressure;altitude;pressure_sealevel;temperature;humidity
60373;BME280;46216;52.220;5.134;2023-08-06T00:02:17;100677.56;;;16.07;100.00
60373;BME280;46216;52.220;5.134;2023-08-06T00:04:42;100681.81;;;16.10;100.00
60373;BME280;46216;52.220;5.134;2023-08-06T00:07:07;100682.94;;;16.07;100.00
60373;BME280;46216;52.220;5.134;2023-08-06T00:09:33;100683.78;;;16.08;100.00
60373;BME280;46216;52.220;5.134;2023-08-06T00:11:58;100676.88;;;16.05;100.00
60373;BME280;46216;52.220;5.134;2023-08-06T00:14:23;100685.63;;;16.07;100.00
60373;BME280;46216;52.220;5.134;2023-08-06T00:16:49;100684.94;;;16.05;100.00
60373;BME280;46216;52.220;5.134;2023-08-06T00:19:14;100678.53;;;16.06;100.00
60373;BME280;46216;52.220;5.134;2023-08-06T00:21:40;100681.94;;;16.08;100.00
60373;BME280;46216;52.220;5.134;2023-08-06T00:24:05;100681.94;;;16.08;100.00
60373;BME280;46216;52.220;5.134;2023-08-06T00:26:30;100672.19;;;16.07;100.00
60373;BME280;46216;52.220;5.134;2023-08-06T00:28:56;100679.25;;;16.08;100.00
60373;BME280;46216;52.220;5.134;2023-08-06T00:31:21;100678.72;;;16.05;100.00
60373;BME280;46216;52.220;5.134;2023-08-06T00:33:47;100681.22;;;16.06;100.00
60373;BME280;46216;52.220;5.134;2023-08-06T00:36:12;100680.25;;;16.07;100.00
60373;BME280;46216;52.220;5.134;2023-08-06T00:38:37;100682.94;;;16.07;100.00
60373;BME280;46216;52.220;5.134;2023-08-06T00:41:03;100680.25;;;16.07;100.00
60373;BME280;46216;52.220;5.134;2023-08-06T00:43:28;100673.88;;;16.08;100.00
60373;BME280;46216;52.220;5.134;2023-08-06T00:45:54;100681.63;;;16.12;100.00
60373;BME280;46216;52.220;5.134;2023-08-06T00:48:19;100676.09;;;16.13;100.00
60373;BME280;46216;52.220;5.134;2023-08-06T00:50:45;100680.63;;;16.13;100.00
60373;BME280;46216;52.220;5.134;2023-08-06T00:53:11;100680.81;;;16.11;100.00
60373;BME280;46216;52.220;5.134;2023-08-06T00:55:36;100678.09;;;16.11;100.00
60373;BME280;46216;52.220;5.134;2023-08-06T00:58:02;100679.97;;;16.11;100.00
60373;BME280;46216;52.220;5.134;2023-08-06T01:00:28;100674.72;;;16.09;100.00
60373;BME280;46216;52.220;5.134;2023-08-06T01:02:53;100676.56;;;16.08;100.00
60373;BME280;46216;52.220;5.134;2023-08-06T01:05:20;100675.56;;;16.09;100.00
60373;BME280;46216;52.220;5.134;2023-08-06T01:10:26;100678.25;;;16.09;100.00
60373;BME280;46216;52.220;5.134;2023-08-06T01:15:33;100676.44;;;16.10;100.00
60373;BME280;46216;52.220;5.134;2023-08-06T01:18:00;100673.75;;;16.10;100.00
60373;BME280;46216;52.220;5.134;2023-08-06T01:20:32;100665.97;;;16.07;100.00
60373;BME280;46216;52.220;5.134;2023-08-06T01:22:57;100672.88;;;16.09;100.00
60373;BME280;46216;52.220;5.134;2023-08-06T01:25:30;100664.81;;;16.09;100.00
60373;BME280;46216;52.220;5.134;2023-08-06T01:28:04;100672.88;;;16.09;100.00
60373;BME280;46216;52.220;5.134;2023-08-06T01:30:37;100673.56;;;16.12;100.00
60373;BME280;46216;52.220;5.134;2023-08-06T01:33:04;100670.88;;;16.12;100.00
60373;BME280;46216;52.220;5.134;2023-08-06T01:35:33;100668.19;;;16.12;100.00
60373;BME280;46216;52.220;5.134;2023-08-06T01:38:00;100666.50;;;16.11;100.00
60373;BME280;46216;52.220;5.134;2023-08-06T01:40:27;100670.19;;;16.09;100.00
60373;BME280;46216;52.220;5.134;2023-08-06T01:42:54;100668.50;;;16.08;100.00
60373;BME280;46216;52.220;5.134;2023-08-06T01:45:20;100672.19;;;16.07;100.00
60373;BME280;46216;52.220;5.134;2023-08-06T01:47:45;100676.88;;;16.05;100.00
60373;BME280;46216;52.220;5.134;2023-08-06T01:50:10;100674.19;;;16.05;100.00
60373;BME280;46216;52.220;5.134;2023-08-06T01:52:36;100676.19;;;16.03;100.00
60373;BME280;46216;52.220;5.134;2023-08-06T01:55:01;100680.38;;;16.06;100.00
60373;BME280;46216;52.220;5.134;2023-08-06T01:57:26;100674.19;;;16.05;100.00
60373;BME280;46216;52.220;5.134;2023-08-06T01:59:52;100677.69;;;16.06;100.00
60373;BME280;46216;52.220;5.134;2023-08-06T02:02:17;100670.81;;;16.03;100.00
60373;BME280;46216;52.220;5.134;2023-08-06T02:04:42;100670.81;;;16.03;100.00
60373;BME280;46216;52.220;5.134;2023-08-06T02:07:08;100673.50;;;16.03;100.00
60373;BME280;46216;52.220;5.134;2023-08-06T02:09:33;100681.69;;;16.02;100.00
60373;BME280;46216;52.220;5.134;2023-08-06T02:12:00;100678.16;;;16.01;100.00
60373;BME280;46216;52.220;5.134;2023-08-06T02:14:26;100683.53;;;16.01;100.00
60373;BME280;46216;52.220;5.134;2023-08-06T02:16:51;100683.25;;;16.04;100.00
60373;BME280;46216;52.220;5.134;2023-08-06T02:19:16;100687.78;;;16.04;100.00
60373;BME280;46216;52.220;5.134;2023-08-06T02:21:42;100683.25;;;16.04;100.00
60373;BME280;46216;52.220;5.134;2023-08-06T02:24:07;100678.00;;;16.03;100.00
60373;BME280;46216;52.220;5.134;2023-08-06T02:26:33;100674.47;;;16.02;100.00
60373;BME280;46216;52.220;5.134;2023-08-06T02:28:58;100683.53;;;16.01;100.00
60373;BME280;46216;52.220;5.134;2023-08-06T02:31:23;100677.03;;;16.04;100.00
60373;BME280;46216;52.220;5.134;2023-08-06T02:33:49;100674.34;;;16.04;100.00
60373;BME280;46216;52.220;5.134;2023-08-06T02:36:14;100673.63;;;16.02;100.00
60373;BME280;46216;52.220;5.134;2023-08-06T02:38:39;100679.56;;;16.05;100.00
60373;BME280;46216;52.220;5.134;2023-08-06T02:41:05;100670.81;;;16.03;100.00
60373;BME280;46216;52.220;5.134;2023-08-06T02:43:31;100677.88;;;16.04;100.00
60373;BME280;46216;52.220;5.134;2023-08-06T02:45:57;100667.97;;;16.05;100.00
60373;BME280;46216;52.220;5.134;2023-08-06T02:48:23;100674.88;;;16.07;100.00
60373;BME280;46216;52.220;5.134;2023-08-06T02:50:48;100680.25;;;16.07;100.00
60373;BME280;46216;52.220;5.134;2023-08-06T02:53:13;100676.72;;;16.07;100.00
60373;BME280;46216;52.220;5.134;2023-08-06T02:55:47;100668.13;;;16.03;100.00
60373;BME280;46216;52.220;5.134;2023-08-06T02:58:16;100673.03;;;16.08;100.00
60373;BME280;46216;52.220;5.134;2023-08-06T03:00:43;100671.72;;;16.12;100.00
60373;BME280;46216;52.220;5.134;2023-08-06T03:03:09;100673.75;;;16.10;100.00
60373;BME280;46216;52.220;5.134;2023-08-06T03:05:35;100675.25;;;16.13;100.00
60373;BME280;46216;52.220;5.134;2023-08-06T03:08:00;100673.56;;;16.12;100.00
60373;BME280;46216;52.220;5.134;2023-08-06T03:10:25;100662.81;;;16.12;100.00
60373;BME280;46216;52.220;5.134;2023-08-06T03:12:51;100670.59;;;16.15;100.00
60373;BME280;46216;52.220;5.134;2023-08-06T03:15:16;100675.78;;;16.16;100.00
60373;BME280;46216;52.220;5.134;2023-08-06T03:17:42;100671.25;;;16.17;100.00
60373;BME280;46216;52.220;5.134;2023-08-06T03:20:07;100671.13;;;16.18;100.00
60373;BME280;46216;52.220;5.134;2023-08-06T03:22:33;100663.91;;;16.19;100.00
60373;BME280;46216;52.220;5.134;2023-08-06T03:24:58;100672.97;;;16.18;100.00
60373;BME280;46216;52.220;5.134;2023-08-06T03:27:23;100668.56;;;16.17;100.00
60373;BME280;46216;52.220;5.134;2023-08-06T03:29:49;100676.63;;;16.17;100.00
60373;BME280;46216;52.220;5.134;2023-08-06T03:32:17;100679.31;;;16.17;100.00
60373;BME280;46216;52.220;5.134;2023-08-06T03:34:43;100673.94;;;16.17;100.00
60373;BME280;46216;52.220;5.134;2023-08-06T03:37:08;100671.25;;;16.17;100.00
60373;BME280;46216;52.220;5.134;2023-08-06T03:39:33;100674.97;;;16.16;100.00
60373;BME280;46216;52.220;5.134;2023-08-06T03:41:59;100678.47;;;16.16;100.00
60373;BME280;46216;52.220;5.134;2023-08-06T03:44:24;100676.81;;;16.15;100.00
60373;BME280;46216;52.220;5.134;2023-08-06T03:46:50;100669.56;;;16.16;100.00
60373;BME280;46216;52.220;5.134;2023-08-06T03:49:15;100673.09;;;16.16;100.00
60373;BME280;46216;52.220;5.134;2023-08-06T03:51:40;100679.50;;;16.15;100.00
60373;BME280;46216;52.220;5.134;2023-08-06T03:54:06;100671.59;;;16.14;100.00
60373;BME280;46216;52.220;5.134;2023-08-06T03:56:31;100666.34;;;16.12;100.00
60373;BME280;46216;52.220;5.134;2023-08-06T03:58:56;100671.59;;;16.14;100.00
60373;BME280;46216;52.220;5.134;2023-08-06T04:01:22;100674.97;;;16.16;100.00
60373;BME280;46216;52.220;5.134;2023-08-06T04:03:47;100675.97;;;16.15;100.00
60373;BME280;46216;52.220;5.134;2023-08-06T04:06:12;100676.97;;;16.14;100.00
60373;BME280;46216;52.220;5.134;2023-08-06T04:08:38;100676.09;;;16.13;100.00
60373;BME280;46216;52.220;5.134;2023-08-06T04:11:03;100671.91;;;16.11;100.00
60373;BME280;46216;52.220;5.134;2023-08-06T04:13:29;100678.09;;;16.11;100.00
60373;BME280;46216;52.220;5.134;2023-08-06T04:15:54;100674.88;;;16.07;100.00
60373;BME280;46216;52.220;5.134;2023-08-06T04:18:19;100683.63;;;16.09;100.00
60373;BME280;46216;52.220;5.134;2023-08-06T04:20:46;100683.63;;;16.09;100.00
60373;BME280;46216;52.220;5.134;2023-08-06T04:23:12;100683.78;;;16.08;100.00
60373;BME280;46216;52.220;5.134;2023-08-06T04:25:38;100672.31;;;16.06;100.00
60373;BME280;46216;52.220;5.134;2023-08-06T04:28:03;100686.59;;;16.06;100.00
60373;BME280;46216;52.220;5.134;2023-08-06T04:30:29;100681.22;;;16.06;100.00
60373;BME280;46216;52.220;5.134;2023-08-06T04:32:56;100693.00;;;16.05;100.00
60373;BME280;46216;52.220;5.134;2023-08-06T04:35:22;100701.06;;;16.05;100.00
60373;BME280;46216;52.220;5.134;2023-08-06T04:37:47;100691.31;;;16.04;100.00
60373;BME280;46216;52.220;5.134;2023-08-06T04:40:12;100692.31;;;16.03;100.00
60373;BME280;46216;52.220;5.134;2023-08-06T04:42:38;100698.53;;;16.04;100.00
60373;BME280;46216;52.220;5.134;2023-08-06T04:45:04;100708.44;;;16.03;100.00
60373;BME280;46216;52.220;5.134;2023-08-06T04:47:29;100707.56;;;16.03;100.00
60373;BME280;46216;52.220;5.134;2023-08-06T04:49:55;100712.09;;;16.02;100.00
60373;BME280;46216;52.220;5.134;2023-08-06T04:52:20;100712.09;;;16.02;100.00
60373;BME280;46216;52.220;5.134;2023-08-06T04:54:46;100711.25;;;16.02;100.00
60373;BME280;46216;52.220;5.134;2023-08-06T04:57:11;100706.72;;;16.02;100.00
60373;BME280;46216;52.220;5.134;2023-08-06T04:59:36;100709.41;;;16.02;100.00
60373;BME280;46216;52.220;5.134;2023-08-06T05:02:02;100707.75;;;16.01;100.00
60373;BME280;46216;52.220;5.134;2023-08-06T05:04:27;100703.66;;;15.97;100.00
60373;BME280;46216;52.220;5.134;2023-08-06T05:06:53;100718.31;;;16.03;100.00
60373;BME280;46216;52.220;5.134;2023-08-06T05:09:19;100717.66;;;16.01;100.00
60373;BME280;46216;52.220;5.134;2023-08-06T05:11:46;100716.81;;;16.00;100.00
60373;BME280;46216;52.220;5.134;2023-08-06T05:14:11;100721.16;;;16.01;100.00
60373;BME280;46216;52.220;5.134;2023-08-06T05:16:37;100721.16;;;16.01;100.00
60373;BME280;46216;52.220;5.134;2023-08-06T05:19:02;100726.56;;;16.01;100.00
60373;BME280;46216;52.220;5.134;2023-08-06T05:21:27;100726.38;;;16.03;100.00
60373;BME280;46216;52.220;5.134;2023-08-06T05:23:53;100736.31;;;16.02;100.00
60373;BME280;46216;52.220;5.134;2023-08-06T05:26:18;100734.31;;;16.04;100.00
60373;BME280;46216;52.220;5.134;2023-08-06T05:28:45;100723.63;;;15.95;100.00
60373;BME280;46216;52.220;5.134;2023-08-06T05:31:11;100733.91;;;15.99;100.00
60373;BME280;46216;52.220;5.134;2023-08-06T05:33:36;100738.00;;;16.03;100.00
60373;BME280;46216;52.220;5.134;2023-08-06T05:36:01;100755.53;;;16.07;100.00
60373;BME280;46216;52.220;5.134;2023-08-06T05:38:27;100753.81;;;16.06;100.00
60373;BME280;46216;52.220;5.134;2023-08-06T05:40:52;100745.66;;;15.98;100.00
60373;BME280;46216;52.220;5.134;2023-08-06T05:43:18;100751.34;;;15.95;100.00
60373;BME280;46216;52.220;5.134;2023-08-06T05:45:46;100754.31;;;15.92;100.00
60373;BME280;46216;52.220;5.134;2023-08-06T05:48:14;100760.69;;;15.91;100.00
60373;BME280;46216;52.220;5.134;2023-08-06T05:50:39;100757.59;;;15.86;100.00
60373;BME280;46216;52.220;5.134;2023-08-06T05:53:05;100759.59;;;15.84;100.00
60373;BME280;46216;52.220;5.134;2023-08-06T05:55:30;100762.00;;;15.87;100.00
60373;BME280;46216;52.220;5.134;2023-08-06T05:57:57;100758.19;;;15.80;100.00
60373;BME280;46216;52.220;5.134;2023-08-06T06:00:22;100771.94;;;15.77;100.00
60373;BME280;46216;52.220;5.134;2023-08-06T06:02:48;100766.97;;;15.72;100.00
60373;BME280;46216;52.220;5.134;2023-08-06T06:05:13;100770.81;;;15.70;100.00
60373;BME280;46216;52.220;5.134;2023-08-06T06:07:39;100783.53;;;15.68;100.00
60373;BME280;46216;52.220;5.134;2023-08-06T06:10:04;100775.91;;;15.63;100.00
60373;BME280;46216;52.220;5.134;2023-08-06T06:12:30;100784.66;;;15.55;100.00
60373;BME280;46216;52.220;5.134;2023-08-06T06:14:55;100785.94;;;15.51;100.00
60373;BME280;46216;52.220;5.134;2023-08-06T06:17:21;100789.09;;;15.47;100.00
60373;BME280;46216;52.220;5.134;2023-08-06T06:19:46;100799.13;;;15.35;100.00
60373;BME280;46216;52.220;5.134;2023-08-06T06:22:12;100792.63;;;15.28;100.00
60373;BME280;46216;52.220;5.134;2023-08-06T06:24:37;100795.03;;;15.31;100.00
60373;BME280;46216;52.220;5.134;2023-08-06T06:27:03;100793.47;;;15.28;100.00
60373;BME280;46216;52.220;5.134;2023-08-06T06:29:29;100800.97;;;15.25;100.00
60373;BME280;46216;52.220;5.134;2023-08-06T06:31:54;100801.69;;;15.27;100.00
60373;BME280;46216;52.220;5.134;2023-08-06T06:34:19;100813.28;;;15.27;100.00
60373;BME280;46216;52.220;5.134;2023-08-06T06:36:45;100811.03;;;15.23;100.00
60373;BME280;46216;52.220;5.134;2023-08-06T06:39:11;100817.81;;;15.27;100.00
60373;BME280;46216;52.220;5.134;2023-08-06T06:41:37;100822.31;;;15.26;100.00
60373;BME280;46216;52.220;5.134;2023-08-06T06:44:02;100812.44;;;15.17;100.00
60373;BME280;46216;52.220;5.134;2023-08-06T06:46:28;100824.00;;;15.18;100.00
60373;BME280;46216;52.220;5.134;2023-08-06T06:48:53;100831.38;;;15.16;100.00
60373;BME280;46216;52.220;5.134;2023-08-06T06:51:18;100824.00;;;15.08;100.00
60373;BME280;46216;52.220;5.134;2023-08-06T06:53:46;100830.81;;;15.02;100.00
60373;BME280;46216;52.220;5.134;2023-08-06T06:56:11;100837.84;;;15.03;100.00
60373;BME280;46216;52.220;5.134;2023-08-06T06:58:36;100828.94;;;14.93;100.00
60373;BME280;46216;52.220;5.134;2023-08-06T07:01:03;100829.22;;;14.90;100.00
60373;BME280;46216;52.220;5.134;2023-08-06T07:03:29;100834.19;;;14.85;100.00
60373;BME280;46216;52.220;5.134;2023-08-06T07:05:58;100834.47;;;14.82;100.00
60373;BME280;46216;52.220;5.134;2023-08-06T07:08:26;100828.53;;;14.78;100.00
60373;BME280;46216;52.220;5.134;2023-08-06T07:11:02;100836.56;;;14.78;100.00
60373;BME280;46216;52.220;5.134;2023-08-06T07:13:29;100837.53;;;14.77;100.00
60373;BME280;46216;52.220;5.134;2023-08-06T07:15:55;100836.97;;;14.74;100.00
60373;BME280;46216;52.220;5.134;2023-08-06T07:18:21;100835.56;;;14.70;100.00
60373;BME280;46216;52.220;5.134;2023-08-06T07:20:50;100833.31;;;14.65;100.00
60373;BME280;46216;52.220;5.134;2023-08-06T07:23:16;100830.44;;;14.57;100.00
60373;BME280;46216;52.220;5.134;2023-08-06T07:25:42;100840.06;;;14.59;100.00
60373;BME280;46216;52.220;5.134;2023-08-06T07:28:08;100850.66;;;14.61;100.00
60373;BME280;46216;52.220;5.134;2023-08-06T07:30:33;100858.72;;;14.61;100.00
60373;BME280;46216;52.220;5.134;2023-08-06T07:32:58;100857.72;;;14.62;100.00
60373;BME280;46216;52.220;5.134;2023-08-06T07:35:24;100852.19;;;14.63;100.00
60373;BME280;46216;52.220;5.134;2023-08-06T07:37:49;100865.78;;;14.72;100.00
60373;BME280;46216;52.220;5.134;2023-08-06T07:40:14;100864.66;;;14.74;100.00
60373;BME280;46216;52.220;5.134;2023-08-06T07:42:40;100865.50;;;14.75;100.00
60373;BME280;46216;52.220;5.134;2023-08-06T07:45:07;100865.78;;;14.72;100.00
60373;BME280;46216;52.220;5.134;2023-08-06T07:47:32;100873.38;;;14.66;100.00
60373;BME280;46216;52.220;5.134;2023-08-06T07:49:57;100874.06;;;14.59;100.00
60373;BME280;46216;52.220;5.134;2023-08-06T07:52:23;100862.03;;;14.53;100.00
60373;BME280;46216;52.220;5.134;2023-08-06T07:54:48;100868.41;;;14.52;100.00
60373;BME280;46216;52.220;5.134;2023-08-06T07:57:14;100870.38;;;14.50;100.00
60373;BME280;46216;52.220;5.134;2023-08-06T07:59:40;100868.56;;;14.51;100.00
60373;BME280;46216;52.220;5.134;2023-08-06T08:02:05;100864.03;;;14.51;100.00
60373;BME280;46216;52.220;5.134;2023-08-06T08:04:30;100864.88;;;14.52;100.00
60373;BME280;46216;52.220;5.134;2023-08-06T08:06:56;100877.28;;;14.53;100.00
60373;BME280;46216;52.220;5.134;2023-08-06T08:09:21;100877.03;;;14.56;100.00
60373;BME280;46216;52.220;5.134;2023-08-06T08:11:47;100874.63;;;14.53;100.00
60373;BME280;46216;52.220;5.134;2023-08-06T08:14:15;100870.09;;;14.53;100.00
60373;BME280;46216;52.220;5.134;2023-08-06T08:16:41;100877.19;;;14.54;100.00
60373;BME280;46216;52.220;5.134;2023-08-06T08:19:06;100877.28;;;14.53;100.00
60373;BME280;46216;52.220;5.134;2023-08-06T08:21:32;100864.03;;;14.51;100.00
60373;BME280;46216;52.220;5.134;2023-08-06T08:24:00;100879.00;;;14.54;100.00
60373;BME280;46216;52.220;5.134;2023-08-06T08:26:26;100883.13;;;14.58;100.00
60373;BME280;46216;52.220;5.134;2023-08-06T08:28:53;100880.75;;;14.64;100.00
60373;BME280;46216;52.220;5.134;2023-08-06T08:31:18;100878.47;;;14.70;100.00
60373;BME280;46216;52.220;5.134;2023-08-06T08:33:44;100885.97;;;14.76;100.00
60373;BME280;46216;52.220;5.134;2023-08-06T08:36:09;100880.19;;;14.80;100.00
60373;BME280;46216;52.220;5.134;2023-08-06T08:38:35;100876.38;;;14.83;100.00
60373;BME280;46216;52.220;5.134;2023-08-06T08:41:00;100882.59;;;14.83;100.00
60373;BME280;46216;52.220;5.134;2023-08-06T08:43:27;100892.78;;;14.89;100.00
60373;BME280;46216;52.220;5.134;2023-08-06T08:45:53;100888.72;;;14.95;100.00
60373;BME280;46216;52.220;5.134;2023-08-06T08:48:24;100892.66;;;15.01;100.00
60373;BME280;46216;52.220;5.134;2023-08-06T08:50:50;100897.91;;;15.02;100.00
60373;BME280;46216;52.220;5.134;2023-08-06T08:53:16;100894.94;;;15.05;100.00
60373;BME280;46216;52.220;5.134;2023-08-06T08:55:43;100898.19;;;15.09;100.00
60373;BME280;46216;52.220;5.134;2023-08-06T08:58:10;100885.34;;;15.12;100.00
60373;BME280;46216;52.220;5.134;2023-08-06T09:00:36;100897.94;;;15.22;100.00
60373;BME280;46216;52.220;5.134;2023-08-06T09:03:02;100907.41;;;15.26;100.00
60373;BME280;46216;52.220;5.134;2023-08-06T09:05:29;100904.84;;;15.34;100.00
60373;BME280;46216;52.220;5.134;2023-08-06T09:08:02;100902.88;;;15.36;100.00
60373;BME280;46216;52.220;5.134;2023-08-06T09:10:27;100904.69;;;15.45;100.00
60373;BME280;46216;52.220;5.134;2023-08-06T09:12:55;100907.94;;;15.49;100.00
60373;BME280;46216;52.220;5.134;2023-08-06T09:15:24;100910.91;;;15.55;100.00
60373;BME280;46216;52.220;5.134;2023-08-06T09:17:49;100922.09;;;15.60;100.00
60373;BME280;46216;52.220;5.134;2023-08-06T09:20:15;100927.88;;;15.66;100.00
60373;BME280;46216;52.220;5.134;2023-08-06T09:22:41;100933.25;;;15.66;100.00
60373;BME280;46216;52.220;5.134;2023-08-06T09:25:07;100939.09;;;15.71;100.00
60373;BME280;46216;52.220;5.134;2023-08-06T09:27:37;100935.41;;;15.72;100.00
60373;BME280;46216;52.220;5.134;2023-08-06T09:30:04;100939.81;;;15.73;100.00
60373;BME280;46216;52.220;5.134;2023-08-06T09:32:49;100945.59;;;15.78;100.00
60373;BME280;46216;52.220;5.134;2023-08-06T09:35:18;100951.69;;;15.80;100.00
60373;BME280;46216;52.220;5.134;2023-08-06T09:37:44;100960.44;;;15.82;100.00
60373;BME280;46216;52.220;5.134;2023-08-06T09:40:30;100957.75;;;15.82;100.00
60373;BME280;46216;52.220;5.134;2023-08-06T09:42:56;100965.41;;;15.87;100.00
60373;BME280;46216;52.220;5.134;2023-08-06T09:45:23;100969.50;;;15.91;100.00
60373;BME280;46216;52.220;5.134;2023-08-06T09:47:56;100962.72;;;15.87;100.00
60373;BME280;46216;52.220;5.134;2023-08-06T09:50:21;100968.78;;;15.89;100.00
60373;BME280;46216;52.220;5.134;2023-08-06T09:52:50;100971.91;;;15.84;100.00
60373;BME280;46216;52.220;5.134;2023-08-06T09:55:16;100967.38;;;15.84;100.00
60373;BME280;46216;52.220;5.134;2023-08-06T09:57:43;100971.06;;;15.83;100.00
60373;BME280;46216;52.220;5.134;2023-08-06T10:00:09;100975.16;;;15.78;100.00
60373;BME280;46216;52.220;5.134;2023-08-06T10:02:39;100981.25;;;15.70;100.00
60373;BME280;46216;52.220;5.134;2023-08-06T10:05:07;100978.91;;;15.66;100.00
60373;BME280;46216;52.220;5.134;2023-08-06T10:07:34;100971.56;;;15.58;100.00
60373;BME280;46216;52.220;5.134;2023-08-06T10:10:00;100974.41;;;15.56;100.00
60373;BME280;46216;52.220;5.134;2023-08-06T10:12:28;100974.25;;;15.58;100.00
60373;BME280;46216;52.220;5.134;2023-08-06T10:14:57;100969.59;;;15.50;100.00
60373;BME280;46216;52.220;5.134;2023-08-06T10:17:23;100974.69;;;15.53;100.00
60373;BME280;46216;52.220;5.134;2023-08-06T10:19:50;100970.72;;;15.48;100.00
60373;BME280;46216;52.220;5.134;2023-08-06T10:22:18;100982.03;;;15.51;100.00
60373;BME280;46216;52.220;5.134;2023-08-06T10:24:57;100980.34;;;15.50;100.00
60373;BME280;46216;52.220;5.134;2023-08-06T10:27:32;100966.47;;;15.45;100.00
60373;BME280;46216;52.220;5.134;2023-08-06T10:30:27;100977.38;;;15.44;100.00
60373;BME280;46216;52.220;5.134;2023-08-06T10:32:55;100978.94;;;15.46;100.00
60373;BME280;46216;52.220;5.134;2023-08-06T10:35:42;100983.31;;;15.47;100.00
60373;BME280;46216;52.220;5.134;2023-08-06T10:38:11;100987.00;;;15.46;100.00
60373;BME280;46216;52.220;5.134;2023-08-06T10:40:42;100978.09;;;15.46;100.00
60373;BME280;46216;52.220;5.134;2023-08-06T10:45:50;100983.31;;;15.47;100.00
60373;BME280;46216;52.220;5.134;2023-08-06T10:51:00;100987.41;;;15.51;100.00
60373;BME280;46216;52.220;5.134;2023-08-06T10:53:25;100987.13;;;15.54;100.00
60373;BME280;46216;52.220;5.134;2023-08-06T10:55:51;100989.38;;;15.59;100.00
60373;BME280;46216;52.220;5.134;2023-08-06T10:58:16;100989.25;;;15.60;100.00
60373;BME280;46216;52.220;5.134;2023-08-06T11:00:42;100998.72;;;15.65;100.00
60373;BME280;46216;52.220;5.134;2023-08-06T11:03:08;100997.03;;;15.64;100.00
60373;BME280;46216;52.220;5.134;2023-08-06T11:05:34;101006.25;;;15.71;100.00
60373;BME280;46216;52.220;5.134;2023-08-06T11:08:00;101007.53;;;15.67;100.00
60373;BME280;46216;52.220;5.134;2023-08-06T11:10:28;101007.53;;;15.67;100.00
60373;BME280;46216;52.220;5.134;2023-08-06T11:13:01;101008.38;;;15.67;100.00
60373;BME280;46216;52.220;5.134;2023-08-06T11:15:27;101005.53;;;15.69;100.00
60373;BME280;46216;52.220;5.134;2023-08-06T11:17:52;101016.56;;;15.75;100.00
60373;BME280;46216;52.220;5.134;2023-08-06T11:20:20;101012.03;;;15.76;100.00
60373;BME280;46216;52.220;5.134;2023-08-06T11:22:46;101013.03;;;15.75;100.00
60373;BME280;46216;52.220;5.134;2023-08-06T11:25:12;101021.00;;;15.76;100.00
60373;BME280;46216;52.220;5.134;2023-08-06T11:27:37;101008.66;;;15.74;100.00
60373;BME280;46216;52.220;5.134;2023-08-06T11:30:03;101019.25;;;15.75;100.00
60373;BME280;46216;52.220;5.134;2023-08-06T11:32:29;101017.72;;;15.73;100.00
60373;BME280;46216;52.220;5.134;2023-08-06T11:35:10;101016.53;;;15.66;100.00
60373;BME280;46216;52.220;5.134;2023-08-06T11:37:37;101021.22;;;15.64;100.00
60373;BME280;46216;52.220;5.134;2023-08-06T11:40:08;101023.47;;;15.58;100.00
60373;BME280;46216;52.220;5.134;2023-08-06T11:42:36;101028.13;;;15.56;100.00
60373;BME280;46216;52.220;5.134;2023-08-06T11:45:03;101028.97;;;15.47;100.00
60373;BME280;46216;52.220;5.134;2023-08-06T11:47:29;101030.66;;;15.48;100.00
60373;BME280;46216;52.220;5.134;2023-08-06T11:49:55;101030.09;;;15.45;100.00
60373;BME280;46216;52.220;5.134;2023-08-06T11:52:22;101024.88;;;15.43;100.00
60373;BME280;46216;52.220;5.134;2023-08-06T11:55:08;101029.25;;;15.44;100.00
60373;BME280;46216;52.220;5.134;2023-08-06T11:57:43;101032.66;;;15.46;100.00
60373;BME280;46216;52.220;5.134;2023-08-06T12:00:11;101037.75;;;15.49;100.00
60373;BME280;46216;52.220;5.134;2023-08-06T12:02:39;101036.59;;;15.52;100.00
60373;BME280;46216;52.220;5.134;2023-08-06T12:05:13;101039.16;;;15.53;100.00
60373;BME280;46216;52.220;5.134;2023-08-06T12:07:41;101040.84;;;15.54;100.00
60373;BME280;46216;52.220;5.134;2023-08-06T12:10:06;101038.03;;;15.56;100.00
60373;BME280;46216;52.220;5.134;2023-08-06T12:12:32;101043.97;;;15.59;100.00
60373;BME280;46216;52.220;5.134;2023-08-06T12:14:58;101038.63;;;15.59;100.00
60373;BME280;46216;52.220;5.134;2023-08-06T12:17:26;101043.72;;;15.63;100.00
60373;BME280;46216;52.220;5.134;2023-08-06T12:19:52;101045.41;;;15.64;100.00
60373;BME280;46216;52.220;5.134;2023-08-06T12:22:17;101040.63;;;15.67;100.00
60373;BME280;46216;52.220;5.134;2023-08-06T12:24:44;101039.88;;;15.65;100.00
60373;BME280;46216;52.220;5.134;2023-08-06T12:27:11;101043.16;;;15.69;100.00
60373;BME280;46216;52.220;5.134;2023-08-06T12:29:47;101050.81;;;15.73;100.00
60373;BME280;46216;52.220;5.134;2023-08-06T12:32:13;101051.13;;;15.80;100.00
60373;BME280;46216;52.220;5.134;2023-08-06T12:34:40;101054.50;;;15.82;100.00
60373;BME280;46216;52.220;5.134;2023-08-06T12:37:06;101056.22;;;15.83;100.00
60373;BME280;46216;52.220;5.134;2023-08-06T12:39:36;101049.56;;;15.87;100.00
60373;BME280;46216;52.220;5.134;2023-08-06T12:42:03;101059.03;;;15.91;100.00
60373;BME280;46216;52.220;5.134;2023-08-06T12:44:28;101063.84;;;15.97;100.00
60373;BME280;46216;52.220;5.134;2023-08-06T12:46:54;101064.53;;;15.99;100.00
60373;BME280;46216;52.220;5.134;2023-08-06T12:49:20;101065.97;;;16.03;100.00